Time;durP1;ratioP1;P1;durP2;ratioP2;P2;SDS_P1;SDS_P2;PMS_P1;PMS_P2;Temp;Humidity;BMP_temperature;BMP_pressure;BME280_temperature;BME280_humidity;BME280_pressure;Samples;Min_cycle;Max_cycle;Signal;HPM_P1;HPM_P2
2021/11/01 00:01:00;;;;;;;29.67;19.60;;;230.80;2124.80;;;;;;4793164;29;20031;-78
2021/11/01 00:03:26;;;;;;;28.25;19.02;;;230.80;2124.80;;;;;;4808267;29;20191;-78
2021/11/01 00:05:52;;;;;;;29.50;19.55;;;230.70;2124.80;;;;;;4792849;29;20531;-78
2021/11/01 00:08:18;;;;;;;29.98;20.55;;;230.80;2124.80;;;;;;4793058;29;20035;-77
2021/11/01 00:10:44;;;;;;;36.78;21.63;;;230.70;2124.80;;;;;;4809265;29;20034;-78
2021/11/01 00:13:10;;;;;;;41.13;23.80;;;230.70;2150.40;;;;;;4808161;29;20027;-78
2021/11/01 00:15:36;;;;;;;47.05;24.08;;;230.60;2150.40;;;;;;4792961;29;20067;-78
2021/11/01 00:18:03;;;;;;;47.45;25.90;;;230.50;2176.00;;;;;;4807931;29;20122;-78
2021/11/01 00:20:30;;;;;;;50.47;27.10;;;230.50;2176.00;;;;;;4792874;29;20038;-78
2021/11/01 00:22:56;;;;;;;34.88;20.42;;;230.50;2176.00;;;;;;4792713;29;20045;-77
2021/11/01 00:25:22;;;;;;;30.92;19.95;;;230.50;2201.60;;;;;;4792766;29;20047;-77
2021/11/01 00:27:49;;;;;;;27.23;18.40;;;230.60;2176.00;;;;;;4792772;29;20038;-78
2021/11/01 00:30:15;;;;;;;26.67;17.58;;;230.60;2176.00;;;;;;4792911;29;20581;-78
2021/11/01 00:32:42;;;;;;;25.73;17.75;;;230.60;2176.00;;;;;;4808932;29;20031;-78
2021/11/01 00:35:08;;;;;;;28.58;18.45;;;230.60;2176.00;;;;;;4792692;29;20073;-78
2021/11/01 00:37:34;;;;;;;24.52;18.05;;;230.60;2150.40;;;;;;4792966;29;20428;-77
2021/11/01 00:40:01;;;;;;;26.35;18.02;;;230.60;2124.80;;;;;;4810543;29;20455;-77
2021/11/01 00:42:28;;;;;;;24.77;17.42;;;230.60;2150.40;;;;;;4810547;29;20083;-77
2021/11/01 00:44:54;;;;;;;27.52;19.33;;;230.60;2150.40;;;;;;4810263;29;20030;-79
2021/11/01 00:47:20;;;;;;;24.35;17.15;;;230.60;2150.40;;;;;;4826966;29;20091;-77
2021/11/01 00:49:46;;;;;;;24.95;17.90;;;230.50;2150.40;;;;;;4809895;29;20038;-77
2021/11/01 00:52:12;;;;;;;25.30;17.77;;;230.50;2150.40;;;;;;4810160;29;20150;-77
2021/11/01 00:54:40;;;;;;;25.92;18.23;;;230.50;2150.40;;;;;;4826581;29;20030;-78
2021/11/01 00:57:06;;;;;;;32.78;20.05;;;230.50;2150.40;;;;;;4810284;29;20042;-77
2021/11/01 00:59:32;;;;;;;36.53;21.23;;;230.40;2176.00;;;;;;4825309;29;20433;-78
2021/11/01 01:01:58;;;;;;;37.70;21.23;;;205.70;2176.00;;;;;;4810216;29;20114;-77
2021/11/01 01:04:25;;;;;;;26.90;19.05;;;205.60;2176.00;;;;;;4810112;29;20059;-78
2021/11/01 01:06:51;;;;;;;35.20;22.15;;;231.00;2201.60;;;;;;4825189;29;20522;-77
2021/11/01 01:09:17;;;;;;;36.17;21.63;;;205.60;2227.20;;;;;;4826454;29;20027;-78
2021/11/01 01:11:44;;;;;;;38.63;21.27;;;205.70;2176.00;;;;;;4810063;29;20031;-78
2021/11/01 01:14:10;;;;;;;36.45;20.27;;;205.60;2201.60;;;;;;4826376;29;20026;-77
2021/11/01 01:16:43;;;;;;;40.85;21.98;;;205.60;2201.60;;;;;;4809950;29;20044;-78
2021/11/01 01:19:18;;;;;;;29.00;20.42;;;205.50;2201.60;;;;;;4809992;29;20531;-77
2021/11/01 01:24:29;;;;;;;27.10;18.33;;;205.50;2201.60;;;;;;4826737;29;20112;-77
2021/11/01 01:26:55;;;;;;;29.75;19.10;;;205.50;2201.60;;;;;;4826112;29;20066;-77
2021/11/01 01:29:21;;;;;;;29.10;19.13;;;205.50;2201.60;;;;;;4809797;29;20022;-78
2021/11/01 01:31:47;;;;;;;27.52;18.10;;;205.50;2201.60;;;;;;4826037;29;20034;-78
2021/11/01 01:34:13;;;;;;;26.95;18.85;;;;;;;;;;4809424;29;20027;-78
2021/11/01 01:36:40;;;;;;;28.02;19.25;;;;;;;;;;4826017;29;20030;-78
2021/11/01 01:39:06;;;;;;;24.15;17.67;;;;;;;;;;4825925;29;20110;-77
2021/11/01 01:41:33;;;;;;;29.15;18.15;;;;;;;;;;4809620;29;20030;-77
2021/11/01 01:44:01;;;;;;;23.90;17.73;;;;;;;;;;4826342;29;20033;-78
2021/11/01 01:46:28;;;;;;;33.60;21.05;;;;;;;;;;4824521;29;20508;-77
2021/11/01 01:48:55;;;;;;;31.17;18.85;;;;;;;;;;4824722;29;20031;-77
2021/11/01 01:51:22;;;;;;;25.77;19.02;;;;;;;;;;4825537;29;20113;-78
2021/11/01 01:53:50;;;;;;;25.70;18.30;;;;;;;;;;4814449;29;20485;-77
2021/11/01 01:56:17;;;;;;;25.55;18.00;;;;;;;;;;4806418;29;20098;-77
2021/11/01 01:58:51;;;;;;;29.02;19.83;;;;;;;;;;4806200;29;20023;-77
2021/11/01 02:01:18;;;;;;;30.58;19.55;;;205.50;2176.00;;;;;;4806842;29;20035;-77
2021/11/01 02:03:49;;;;;;;31.27;19.35;;;205.40;2252.80;;;;;;4790881;29;20072;-77
2021/11/01 02:06:24;;;;;;;26.58;20.02;;;205.30;2201.60;;;;;;4791138;29;20090;-77
2021/11/01 02:08:56;;;;;;;26.63;18.08;;;205.20;2227.20;;;;;;4790985;29;20503;-77
2021/11/01 02:11:29;;;;;;;29.10;19.38;;;205.30;2227.20;;;;;;4791026;29;20035;-77
2021/11/01 02:13:59;;;;;;;23.58;17.65;;;205.30;2201.60;;;;;;4791039;29;20076;-78
2021/11/01 02:16:29;;;;;;;26.67;18.80;;;205.30;2227.20;;;;;;4806835;29;20517;-78
2021/11/01 02:18:56;;;;;;;30.08;19.55;;;205.30;2227.20;;;;;;4792027;29;20133;-78
2021/11/01 02:21:38;;;;;;;30.02;18.55;;;205.20;2227.20;;;;;;4795042;29;20476;-78
2021/11/01 02:24:21;;;;;;;28.25;18.92;;;205.30;2227.20;;;;;;4791613;29;20041;-77
2021/11/01 02:27:37;;;;;;;33.00;20.27;;;205.20;2227.20;;;;;;4793948;29;20085;-78
2021/11/01 02:30:15;;;;;;;30.85;20.98;;;205.20;2227.20;;;;;;4815426;29;20057;-78
2021/11/01 02:32:46;;;;;;;27.25;19.02;;;205.00;2227.20;;;;;;4780818;29;20437;-78
2021/11/01 02:35:16;;;;;;;29.10;19.30;;;205.10;2227.20;;;;;;4804996;29;20038;-78
2021/11/01 02:37:43;;;;;;;26.10;18.85;;;205.10;2227.20;;;;;;4791436;29;20042;-77
2021/11/01 02:40:29;;;;;;;26.85;19.20;;;205.20;2227.20;;;;;;4808011;29;20073;-78
2021/11/01 02:42:56;;;;;;;31.52;20.67;;;205.10;2227.20;;;;;;4792083;29;20035;-78
2021/11/01 02:45:26;;;;;;;25.50;18.60;;;205.10;2227.20;;;;;;4808744;29;20070;-77
2021/11/01 02:47:53;;;;;;;28.50;19.63;;;205.10;2227.20;;;;;;4824240;29;20117;-77
2021/11/01 02:50:21;;;;;;;27.17;18.10;;;205.10;2227.20;;;;;;4965996;24;20050;-77
2021/11/01 02:52:53;;;;;;;26.10;19.02;;;205.10;2227.20;;;;;;4784377;29;20054;-78
2021/11/01 02:55:21;;;;;;;29.83;19.88;;;205.10;2227.20;;;;;;4801852;29;20046;-77
2021/11/01 02:57:49;;;;;;;28.27;19.60;;;205.00;2252.80;;;;;;4793429;29;20035;-77
2021/11/01 03:00:18;;;;;;;26.27;18.45;;;205.00;2252.80;;;;;;4810567;29;20043;-77
2021/11/01 03:02:45;;;;;;;27.58;18.77;;;205.10;2227.20;;;;;;4780793;29;20036;-77
2021/11/01 03:05:26;;;;;;;61.20;28.33;;;205.10;2227.20;;;;;;4804186;29;20035;-80
2021/11/01 03:07:54;;;;;;;55.38;25.70;;;205.00;2227.20;;;;;;4789389;29;20123;-77
2021/11/01 03:10:22;;;;;;;76.70;32.72;;;205.00;2252.80;;;;;;4787065;30;20111;-78
2021/11/01 03:12:49;;;;;;;36.35;21.45;;;204.90;2252.80;;;;;;4786653;30;20043;-77
2021/11/01 03:15:21;;;;;;;29.80;20.60;;;204.90;2252.80;;;;;;4786426;30;20055;-77
2021/11/01 03:17:57;;;;;;;50.83;26.83;;;205.00;2252.80;;;;;;4786402;30;20043;-77
2021/11/01 03:20:38;;;;;;;37.78;22.20;;;204.90;2252.80;;;;;;4786479;30;20027;-79
2021/11/01 03:23:08;;;;;;;31.27;20.13;;;204.90;2252.80;;;;;;4786344;30;20546;-77
2021/11/01 03:25:51;;;;;;;32.67;22.55;;;204.90;2252.80;;;;;;4786273;30;20114;-77
2021/11/01 03:28:20;;;;;;;31.55;21.00;;;205.00;2252.80;;;;;;4786795;30;20397;-79
2021/11/01 03:30:48;;;;;;;31.52;21.52;;;204.90;2252.80;;;;;;4786237;30;20039;-78
2021/11/01 03:33:15;;;;;;;34.55;20.90;;;204.90;2252.80;;;;;;4786178;30;20427;-78
2021/11/01 03:35:43;;;;;;;30.35;21.40;;;204.90;2252.80;;;;;;4786995;30;20031;-77
2021/11/01 03:38:11;;;;;;;47.88;26.23;;;204.90;2252.80;;;;;;4785711;30;20093;-77
2021/11/01 03:40:40;;;;;;;37.05;21.42;;;204.80;2252.80;;;;;;4772444;30;20035;-78
2021/11/01 03:43:08;;;;;;;43.75;24.27;;;204.80;2252.80;;;;;;4772358;30;20031;-77
2021/11/01 03:45:35;;;;;;;32.10;21.58;;;204.80;2252.80;;;;;;4788317;30;20047;-78
2021/11/01 03:48:04;;;;;;;38.70;22.00;;;204.80;2252.80;;;;;;4786965;30;20462;-78
2021/11/01 03:53:04;;;;;;;34.10;21.45;;;180.10;2252.80;;;;;;4781543;30;20035;-77
2021/11/01 03:55:31;;;;;;;39.00;22.33;;;204.80;2252.80;;;;;;4788143;30;20081;-77
2021/11/01 03:57:58;;;;;;;51.72;26.60;;;204.80;2252.80;;;;;;4805008;29;20043;-78
2021/11/01 04:00:27;;;;;;;63.33;30.52;;;180.10;2252.80;;;;;;4790015;29;20060;-78
2021/11/01 04:02:54;;;;;;;58.65;29.83;;;180.00;2252.80;;;;;;4806277;29;20042;-77
2021/11/01 04:05:20;;;;;;;33.88;22.83;;;180.00;2252.80;;;;;;4805787;29;20071;-77
2021/11/01 04:07:46;;;;;;;35.33;22.92;;;179.90;2252.80;;;;;;4790736;29;20481;-77
2021/11/01 04:10:14;;;;;;;35.13;22.73;;;180.00;2252.80;;;;;;4789990;29;20067;-77
2021/11/01 04:12:42;;;;;;;29.27;21.05;;;180.10;2252.80;;;;;;4789742;29;20027;-77
2021/11/01 04:15:11;;;;;;;32.15;21.35;;;180.10;2252.80;;;;;;4790450;29;20397;-77
2021/11/01 04:17:46;;;;;;;31.80;20.80;;;180.10;2252.80;;;;;;4789918;29;20419;-77
2021/11/01 04:22:51;;;;;;;32.15;21.10;;;204.80;2252.80;;;;;;4806553;29;20035;-78
2021/11/01 04:25:19;;;;;;;30.42;20.73;;;204.80;2252.80;;;;;;4807316;29;20045;-77
2021/11/01 04:27:46;;;;;;;37.78;23.92;;;204.80;2252.80;;;;;;4793686;29;20042;-77
2021/11/01 04:30:12;;;;;;;50.75;25.33;;;204.80;2252.80;;;;;;4792993;29;20545;-78
2021/11/01 04:32:43;;;;;;;34.80;22.20;;;180.10;2252.80;;;;;;4793084;29;20034;-77
2021/11/01 04:35:35;;;;;;;29.65;20.05;;;180.10;2252.80;;;;;;4813826;29;20022;-80
2021/11/01 04:41:22;;;;;;;45.92;22.92;;;180.10;2252.80;;;;;;4811737;29;20133;-79
2021/11/01 04:55:01;;;;;;;38.90;24.92;;;179.90;2252.80;;;;;;4812369;29;20120;-78
2021/11/01 04:57:26;;;;;;;39.58;24.67;;;179.80;2252.80;;;;;;4816606;29;20019;-78
2021/11/01 04:59:52;;;;;;;36.28;23.45;;;179.70;2252.80;;;;;;4798510;29;20155;-78
2021/11/01 05:02:20;;;;;;;32.42;22.30;;;179.80;2252.80;;;;;;4814173;29;20087;-78
2021/11/01 05:04:47;;;;;;;35.78;23.90;;;179.80;2252.80;;;;;;4799163;29;20031;-78
2021/11/01 05:07:13;;;;;;;41.13;24.65;;;179.80;2252.80;;;;;;4796945;29;20034;-78
2021/11/01 05:09:45;;;;;;;39.67;27.48;;;179.60;2252.80;;;;;;4799343;29;20034;-78
2021/11/01 05:16:32;;;;;;;48.85;33.67;;;179.60;2252.80;;;;;;4752469;30;20037;-79
2021/11/01 05:24:38;;;;;;;50.60;33.85;;;179.60;2252.80;;;;;;4751667;30;20039;-81
2021/11/01 05:37:08;;;;;;;51.10;30.95;;;179.60;2252.80;;;;;;4811780;29;20047;-79
2021/11/01 05:40:18;;;;;;;53.95;31.95;;;179.70;2252.80;;;;;;4797584;29;20059;-79
2021/11/01 05:50:36;;;;;;;51.50;31.35;;;179.60;2252.80;;;;;;5115895;24;20045;-79
2021/11/01 05:53:23;;;;;;;52.40;33.92;;;179.70;2252.80;;;;;;4785780;29;20087;-78
2021/11/01 05:55:57;;;;;;;121.28;72.25;;;179.80;2252.80;;;;;;4771435;30;20102;-78
2021/11/01 05:58:32;;;;;;;170.23;87.82;;;179.80;2252.80;;;;;;4772083;30;20548;-78
2021/11/01 06:14:41;;;;;;;53.13;35.03;;;180.10;2252.80;;;;;;4772397;30;20114;-78
2021/11/01 06:17:07;;;;;;;55.33;34.28;;;180.10;2252.80;;;;;;4771185;30;20028;-78
2021/11/01 06:19:33;;;;;;;60.35;35.45;;;204.80;2252.80;;;;;;4771072;30;20036;-79
2021/11/01 06:21:59;;;;;;;54.35;32.17;;;180.10;2252.80;;;;;;4770493;30;20038;-78
2021/11/01 06:26:51;;;;;;;46.10;30.15;;;204.80;2252.80;;;;;;4769868;30;20130;-78
2021/11/01 06:29:21;;;;;;;49.40;30.25;;;205.00;2252.80;;;;;;4769848;30;20571;-78
2021/11/01 06:31:58;;;;;;;49.17;29.80;;;205.10;2252.80;;;;;;4769584;30;20032;-79
2021/11/01 06:42:39;;;;;;;36.15;25.73;;;205.30;2252.80;;;;;;4770408;30;20121;-79
2021/11/01 06:45:26;;;;;;;39.63;25.40;;;205.40;2252.80;;;;;;4769132;30;20105;-79
2021/11/01 06:56:30;;;;;;;51.10;28.67;;;205.60;2252.80;;;;;;4769536;30;20036;-79
2021/11/01 07:14:56;;;;;;;47.45;30.13;;;230.70;2252.80;;;;;;4788806;30;20104;-80
2021/11/01 07:17:36;;;;;;;46.45;29.10;;;230.80;2252.80;;;;;;4787236;29;20126;-81
2021/11/01 07:20:23;;;;;;;43.08;26.90;;;230.80;2252.80;;;;;;4787238;30;20039;-78
2021/11/01 08:41:32;;;;;;;35.55;24.52;;;717.30;819.20;;;;;;4794017;29;20123;-84
2021/11/01 08:50:04;;;;;;;26.58;20.52;;;768.10;793.60;;;;;;4807092;29;20469;-76
2021/11/01 09:26:53;;;;;;;22.23;18.60;;;896.20;588.80;;;;;;4770614;30;20485;-76
2021/11/01 09:42:14;;;;;;;20.20;17.30;;;845.30;640.00;;;;;;4769848;30;20028;-77
2021/11/01 09:44:40;;;;;;;27.35;22.23;;;819.30;640.00;;;;;;4751828;30;20043;-76
2021/11/01 09:47:06;;;;;;;174.32;27.35;;;742.50;793.60;;;;;;4751760;30;20048;-76
2021/11/01 09:49:34;;;;;;;28.65;21.45;;;742.70;768.00;;;;;;4751963;30;20131;-76
2021/11/01 09:52:05;;;;;;;25.70;18.80;;;691.60;768.00;;;;;;4751550;30;20056;-77
2021/11/01 09:54:31;;;;;;;26.02;20.35;;;640.60;844.80;;;;;;4765030;29;20109;-77
2021/11/01 09:57:04;;;;;;;29.42;20.67;;;640.60;870.40;;;;;;4790966;29;20031;-77
2021/11/01 09:59:37;;;;;;;23.45;18.67;;;640.60;819.20;;;;;;4790951;29;20035;-77
2021/11/01 10:02:08;;;;;;;23.05;19.20;;;614.90;896.00;;;;;;4791037;29;20431;-78
2021/11/01 10:04:36;;;;;;;29.65;17.05;;;615.20;896.00;;;;;;4807334;29;20075;-78
2021/11/01 10:07:22;;;;;;;29.13;18.45;;;640.30;844.80;;;;;;4807284;29;20074;-83
2021/11/01 10:10:18;;;;;;;27.40;17.67;;;666.10;819.20;;;;;;4791386;29;20059;-82
2021/11/01 10:12:47;;;;;;;24.58;16.45;;;742.50;768.00;;;;;;4788731;29;20038;-77
2021/11/01 10:18:10;;;;;;;35.75;23.02;;;640.50;844.80;;;;;;4807646;29;20061;-81
2021/11/01 10:20:50;;;;;;;32.83;19.17;;;589.70;921.60;;;;;;4790771;29;20117;-85
2021/11/01 10:23:30;;;;;;;24.77;17.30;;;588.80;998.40;;;;;;4788897;29;20397;-83
2021/11/01 10:26:05;;;;;;;39.47;19.38;;;563.60;1049.60;;;;;;4805233;29;20066;-82
2021/11/01 10:28:32;;;;;;;46.40;20.42;;;538.10;1075.20;;;;;;4803548;29;20023;-77
2021/11/01 10:31:09;;;;;;;27.92;19.70;;;538.30;1075.20;;;;;;4806951;29;20519;-77
2021/11/01 10:33:43;;;;;;;22.35;18.50;;;538.00;1100.80;;;;;;4803664;29;20027;-82
2021/11/01 10:36:30;;;;;;;24.67;17.90;;;538.50;1049.60;;;;;;4806718;29;20038;-79
2021/11/01 10:39:15;;;;;;;26.50;17.60;;;512.80;1100.80;;;;;;4790060;29;20094;-84
2021/11/01 10:41:54;;;;;;;32.53;20.55;;;512.10;1126.40;;;;;;4789295;29;20090;-79
2021/11/01 11:13:05;;;;;;;34.22;23.30;;;486.40;1254.40;;;;;;4806925;29;20568;-82
2021/11/01 11:15:34;;;;;;;30.60;20.75;;;486.40;1280.00;;;;;;4805322;29;20809;-79
2021/11/01 11:18:11;;;;;;;42.00;20.92;;;461.60;1228.80;;;;;;4806563;29;20026;-82
2021/11/01 11:20:54;;;;;;;30.80;21.17;;;461.50;1254.40;;;;;;4790264;29;20063;-81
2021/11/01 11:33:58;;;;;;;33.65;19.40;;;461.30;1280.00;;;;;;4806970;29;20027;-78
2021/11/01 11:39:28;;;;;;;25.45;16.73;;;461.20;1305.60;;;;;;4809802;29;20442;-79
2021/11/01 11:47:47;;;;;;;29.35;18.30;;;461.00;1305.60;;;;;;4808840;29;20034;-78
2021/11/01 11:50:20;;;;;;;129.97;24.57;;;461.10;1305.60;;;;;;4806838;29;20066;-79
2021/11/01 11:52:47;;;;;;;29.05;18.70;;;461.10;1305.60;;;;;;4792904;29;20323;-79
2021/11/01 11:55:24;;;;;;;26.30;18.25;;;461.20;1305.60;;;;;;4808428;29;20480;-79
2021/11/01 11:58:00;;;;;;;29.67;18.98;;;461.20;1280.00;;;;;;4793087;29;20033;-79
2021/11/01 12:00:33;;;;;;;30.25;17.95;;;461.50;1280.00;;;;;;4792986;29;20030;-79
2021/11/01 12:03:37;;;;;;;30.98;18.20;;;486.40;1254.40;;;;;;4809231;29;20042;-79
2021/11/01 12:06:12;;;;;;;24.63;17.35;;;487.20;1203.20;;;;;;4721100;30;20037;-78
2021/11/01 12:08:45;;;;;;;23.52;17.30;;;589.10;998.40;;;;;;4736080;30;20040;-78
2021/11/01 12:19:17;;;;;;;27.98;16.70;;;512.70;1100.80;;;;;;4736029;30;20037;-78
2021/11/01 12:21:45;;;;;;;24.48;15.98;;;512.20;1203.20;;;;;;4735735;30;20025;-77
2021/11/01 12:24:20;;;;;;;23.05;15.70;;;487.10;1177.60;;;;;;4735772;30;20064;-79
2021/11/01 12:26:46;;;;;;;24.75;15.38;;;486.80;1203.20;;;;;;4721194;30;20041;-78
2021/11/01 12:29:14;;;;;;;21.15;15.00;;;486.70;1228.80;;;;;;4735600;30;20040;-78
2021/11/01 12:31:42;;;;;;;19.20;13.45;;;486.80;1177.60;;;;;;4721111;30;20110;-78
2021/11/01 12:34:21;;;;;;;20.65;13.52;;;486.60;1177.60;;;;;;4735685;30;20029;-80
2021/11/01 12:37:04;;;;;;;26.90;16.08;;;486.80;1177.60;;;;;;4721089;30;20526;-77
2021/11/01 12:39:44;;;;;;;29.02;16.80;;;486.80;1203.20;;;;;;4735455;30;20565;-78
2021/11/01 12:58:57;;;;;;;90.75;58.38;;;487.30;1126.40;;;;;;4808897;29;20034;-79
2021/11/01 13:01:24;;;;;;;199.57;103.13;;;512.80;1075.20;;;;;;4808450;29;20066;-79
2021/11/01 13:04:15;;;;;;;57.28;31.40;;;537.80;1100.80;;;;;;4807199;29;20034;-79
2021/11/01 13:07:23;;;;;;;30.15;21.33;;;563.20;1049.60;;;;;;4792538;29;20085;-79
2021/11/01 13:09:37;;;;;;;28.05;17.25;;;563.80;1024.00;;;;;;4805788;29;20110;-79
2021/11/01 13:20:04;;;;;;;28.23;19.15;;;588.90;972.80;;;;;;4808774;29;20050;-80
2021/11/01 13:22:32;;;;;;;29.10;19.80;;;564.10;998.40;;;;;;4806863;29;20469;-79
2021/11/01 13:25:23;;;;;;;33.53;19.52;;;564.10;998.40;;;;;;4791390;29;20461;-79
2021/11/01 13:38:43;;;;;;;37.20;23.10;;;563.50;1049.60;;;;;;4808083;29;20034;-79
2021/11/01 13:41:18;;;;;;;35.50;24.63;;;563.30;1049.60;;;;;;4791375;29;20027;-79
2021/11/01 13:43:44;;;;;;;35.03;22.85;;;563.40;1024.00;;;;;;4791419;29;20035;-79
2021/11/01 13:46:14;;;;;;;35.42;21.55;;;563.50;1024.00;;;;;;4791495;29;20061;-79
2021/11/01 13:48:41;;;;;;;29.75;19.40;;;563.60;998.40;;;;;;4791590;29;20027;-79
2021/11/01 13:51:10;;;;;;;31.02;20.08;;;563.40;1024.00;;;;;;4807560;29;20039;-79
2021/11/01 13:53:49;;;;;;;31.35;18.52;;;563.50;1024.00;;;;;;4791418;29;20075;-79
2021/11/01 13:56:20;;;;;;;29.95;20.35;;;563.30;1024.00;;;;;;4790517;29;20037;-80
2021/11/01 13:59:04;;;;;;;33.67;20.55;;;563.20;1049.60;;;;;;4790317;29;20485;-81
2021/11/01 14:15:08;;;;;;;28.38;18.35;;;486.90;1228.80;;;;;;4807834;29;20030;-79
2021/11/01 14:28:27;;;;;;;40.47;28.75;;;461.50;1280.00;;;;;;4807366;29;20069;-80
2021/11/01 15:14:43;;;;;;;53.63;35.95;;;410.30;1459.20;;;;;;4780623;29;20063;-84
2021/11/01 15:17:20;;;;;;;61.38;34.45;;;;;;;;;;4806506;29;20031;-81
2021/11/01 15:20:35;;;;;;;50.20;32.38;;;;;;;;;;4790418;29;20106;-85
2021/11/01 16:19:33;;;;;;;538.60;325.88;;;384.10;1638.40;;;;;;4806424;29;20056;-88
2021/11/01 16:22:00;;;;;;;945.88;587.03;;;384.10;1638.40;;;;;;4791759;29;20523;-80
2021/11/01 16:24:26;;;;;;;1048.55;630.97;;;384.00;1638.40;;;;;;4793284;29;20039;-80
2021/11/01 16:26:53;;;;;;;955.83;592.80;;;384.00;1664.00;;;;;;4790998;29;20401;-84
2021/11/01 16:29:21;;;;;;;814.08;553.85;;;384.00;1664.00;;;;;;4807931;29;20031;-78
2021/11/01 16:31:53;;;;;;;691.92;478.42;;;359.30;1664.00;;;;;;4792849;29;20503;-85
2021/11/01 16:34:27;;;;;;;609.33;423.05;;;359.20;1689.60;;;;;;4807435;29;20035;-85
2021/11/01 16:39:27;;;;;;;576.63;429.80;;;359.20;1664.00;;;;;;4809309;29;20023;-79
2021/11/01 16:41:53;;;;;;;473.45;297.65;;;359.10;1689.60;;;;;;4792933;29;20027;-79
2021/11/01 16:44:26;;;;;;;342.10;198.57;;;359.10;1689.60;;;;;;4792874;29;20504;-79
2021/11/01 16:46:53;;;;;;;177.48;108.30;;;359.10;1689.60;;;;;;4792851;29;20504;-80
2021/11/01 16:49:20;;;;;;;119.53;71.57;;;359.10;1689.60;;;;;;4792731;29;20039;-80
2021/11/01 16:51:47;;;;;;;76.43;47.35;;;359.20;1664.00;;;;;;4808864;29;20631;-80
2021/11/01 16:54:16;;;;;;;64.40;40.30;;;359.20;1664.00;;;;;;4808969;29;20023;-80
2021/11/01 16:59:42;;;;;;;61.42;36.67;;;359.20;1664.00;;;;;;4808752;29;20473;-80
2021/11/01 17:05:31;;;;;;;90.97;47.97;;;359.20;1638.40;;;;;;4808689;29;20023;-79
2021/11/01 17:29:48;;;;;;;68.82;41.58;;;359.10;1664.00;;;;;;4808267;29;20508;-80
2021/11/01 17:36:22;;;;;;;80.15;44.65;;;359.00;1664.00;;;;;;4807263;29;20042;-79
2021/11/01 18:37:58;;;;;;;77.53;44.10;;;333.00;1894.40;;;;;;4790794;29;20038;-79
2021/11/01 18:40:13;;;;;;;60.83;41.00;;;333.00;1894.40;;;;;;4804757;29;20031;-79
2021/11/01 18:51:27;;;;;;;108.80;60.33;;;332.90;1920.00;;;;;;4805112;29;20424;-80
2021/11/01 18:54:05;;;;;;;89.53;53.72;;;332.80;1945.60;;;;;;4804687;29;20034;-80
2021/11/01 18:56:37;;;;;;;98.95;56.30;;;332.80;1945.60;;;;;;4789886;29;20027;-80
2021/11/01 18:59:07;;;;;;;96.43;54.45;;;308.10;1945.60;;;;;;4805098;29;20041;-82
2021/11/01 19:01:36;;;;;;;103.95;59.30;;;308.10;1945.60;;;;;;4806487;29;20038;-80
2021/11/01 19:04:07;;;;;;;109.50;59.38;;;308.00;1945.60;;;;;;4806254;29;20030;-81
2021/11/01 19:06:56;;;;;;;93.90;53.33;;;308.00;1945.60;;;;;;4789976;29;20039;-81
2021/11/01 19:09:52;;;;;;;72.18;43.15;;;308.00;1945.60;;;;;;4806094;29;20030;-82
2021/11/01 20:08:06;;;;;;;86.03;49.95;;;307.30;2048.00;;;;;;4809821;29;20080;-79
2021/11/01 21:25:08;;;;;;;44.00;28.98;;;282.40;2048.00;;;;;;4801039;29;20096;-79
2021/11/01 21:27:35;;;;;;;41.70;29.90;;;282.40;2048.00;;;;;;4807864;29;20039;-80
2021/11/01 21:30:01;;;;;;;52.60;34.67;;;282.40;2048.00;;;;;;4791975;29;20035;-80
2021/11/01 21:32:27;;;;;;;50.20;32.35;;;282.40;2048.00;;;;;;4792073;29;20553;-79
2021/11/01 21:37:26;;;;;;;51.15;32.25;;;282.40;2048.00;;;;;;4808538;29;20031;-79
2021/11/01 21:39:53;;;;;;;42.33;28.40;;;282.30;2048.00;;;;;;4808124;29;20034;-79
2021/11/01 21:42:20;;;;;;;44.17;29.40;;;282.30;2048.00;;;;;;4808004;29;20099;-79
2021/11/01 21:44:46;;;;;;;46.22;30.67;;;282.30;2048.00;;;;;;4807924;29;20061;-79
2021/11/01 21:47:12;;;;;;;50.10;32.25;;;282.30;2048.00;;;;;;4791507;29;20038;-81
2021/11/01 21:49:38;;;;;;;54.80;34.03;;;282.30;2048.00;;;;;;4791539;29;20039;-80
2021/11/01 21:52:05;;;;;;;54.10;33.22;;;282.30;2048.00;;;;;;4791387;29;20050;-80
2021/11/01 21:54:33;;;;;;;54.50;33.13;;;282.10;2048.00;;;;;;4791607;29;20031;-80
2021/11/01 21:57:24;;;;;;;38.95;27.77;;;282.10;2073.60;;;;;;4807978;29;20511;-80
2021/11/01 22:19:33;;;;;;;42.00;27.73;;;281.90;2099.20;;;;;;4806742;29;20455;-81
2021/11/01 22:22:09;;;;;;;40.42;25.52;;;281.80;2099.20;;;;;;4807074;29;20031;-80
2021/11/01 22:24:56;;;;;;;40.65;26.63;;;281.70;2099.20;;;;;;4807255;29;20115;-80
2021/11/01 22:33:12;;;;;;;45.90;29.52;;;281.80;2099.20;;;;;;4807338;29;20081;-80
2021/11/01 22:40:58;;;;;;;41.65;29.38;;;256.90;2099.20;;;;;;4814403;29;20038;-80
2021/11/01 22:57:24;;;;;;;41.53;27.80;;;256.90;2124.80;;;;;;4787027;30;20516;-80
2021/11/01 22:59:51;;;;;;;46.95;28.40;;;256.80;2124.80;;;;;;4771763;30;20044;-83
2021/11/01 23:02:18;;;;;;;43.20;26.77;;;256.50;2124.80;;;;;;4786607;29;20112;-80
2021/11/01 23:05:05;;;;;;;39.78;28.23;;;256.80;2124.80;;;;;;4786572;30;20103;-80
2021/11/01 23:32:11;;;;;;;38.85;25.17;;;256.70;2150.40;;;;;;4830976;29;20068;-80
2021/11/01 23:34:37;;;;;;;43.92;26.83;;;256.70;2124.80;;;;;;4810792;29;20031;-82
2021/11/01 23:37:03;;;;;;;38.63;26.13;;;256.70;2124.80;;;;;;4780742;29;20516;-79
2021/11/01 23:39:29;;;;;;;36.47;25.10;;;256.80;2124.80;;;;;;4795589;29;20023;-80
2021/11/01 23:41:55;;;;;;;33.78;24.20;;;256.80;2124.80;;;;;;4811998;29;20035;-88
2021/11/01 23:44:21;;;;;;;57.03;29.85;;;256.80;2124.80;;;;;;4796109;29;20023;-84
2021/11/01 23:46:48;;;;;;;39.72;25.20;;;256.80;2124.80;;;;;;4795836;29;20077;-87
2021/11/01 23:49:14;;;;;;;35.40;24.80;;;256.80;2124.80;;;;;;4812129;29;20092;-79
2021/11/01 23:52:03;;;;;;;47.58;28.30;;;256.80;2124.80;;;;;;4795444;29;20058;-84
2021/11/01 23:54:44;;;;;;;44.22;27.42;;;256.80;2124.80;;;;;;4795031;29;20126;-80
2021/11/01 23:57:14;;;;;;;39.08;25.02;;;256.70;2150.40;;;;;;4795651;29;20038;-79
2021/11/01 23:59:41;;;;;;;36.55;23.73;;;256.70;2124.80;;;;;;4795574;29;20422;-81
